Time;durP1;ratioP1;P1;durP2;ratioP2;P2;SDS_P1;SDS_P2;PMS_P1;PMS_P2;Temp;Humidity;BMP_temperature;BMP_pressure;BME280_temperature;BME280_humidity;BME280_pressure;Samples;Min_cycle;Max_cycle;Signal;HPM_P1;HPM_P2
2024/01/06 00:01:16;;;;;;;1.20;0.70;;;9.30;99.90;;;;;;5050546;28;20225;-74
2024/01/06 00:03:44;;;;;;;0.68;0.57;;;9.30;99.90;;;;;;5071517;28;20210;-74
2024/01/06 00:06:14;;;;;;;0.90;0.70;;;9.30;99.90;;;;;;5055253;28;20193;-74
2024/01/06 00:08:40;;;;;;;0.75;0.60;;;9.30;99.90;;;;;;5050040;28;20271;-73
2024/01/06 00:11:07;;;;;;;0.90;0.60;;;9.30;99.90;;;;;;5056361;28;20303;-74
2024/01/06 00:13:33;;;;;;;0.68;0.57;;;9.30;99.90;;;;;;5056366;28;20210;-76
2024/01/06 00:16:00;;;;;;;0.63;0.60;;;9.30;99.90;;;;;;5074012;28;20193;-75
2024/01/06 00:18:28;;;;;;;1.00;0.70;;;9.30;99.90;;;;;;5057339;28;20282;-72
2024/01/06 00:20:54;;;;;;;1.02;0.60;;;9.30;99.90;;;;;;5053446;28;20274;-74
2024/01/06 00:23:22;;;;;;;1.45;0.70;;;9.30;99.90;;;;;;5058757;28;21371;-73
2024/01/06 00:25:47;;;;;;;1.02;0.60;;;9.30;99.90;;;;;;5052815;28;20187;-73
2024/01/06 00:28:13;;;;;;;0.65;0.60;;;9.30;99.90;;;;;;5056012;28;20169;-74
2024/01/06 00:30:38;;;;;;;0.63;0.60;;;9.20;99.90;;;;;;5057264;28;20336;-72
2024/01/06 00:33:04;;;;;;;0.60;0.60;;;9.30;99.90;;;;;;5055761;28;20203;-73
2024/01/06 00:35:32;;;;;;;0.95;0.68;;;9.30;99.90;;;;;;5056549;28;20181;-74
2024/01/06 00:38:00;;;;;;;0.73;0.68;;;9.30;99.90;;;;;;5062268;28;20176;-74
2024/01/06 00:40:26;;;;;;;0.90;0.70;;;9.30;99.90;;;;;;5057279;28;20235;-75
2024/01/06 00:42:51;;;;;;;1.00;0.70;;;9.30;99.90;;;;;;5056560;28;20172;-74
2024/01/06 00:45:17;;;;;;;0.90;0.80;;;9.30;99.90;;;;;;5057093;28;20187;-74
2024/01/06 00:47:43;;;;;;;1.00;0.85;;;9.30;99.90;;;;;;5059648;28;20211;-74
2024/01/06 00:50:12;;;;;;;1.08;0.98;;;9.30;99.90;;;;;;5057667;28;20254;-74
2024/01/06 00:52:37;;;;;;;0.98;0.60;;;9.20;99.90;;;;;;5057287;28;20177;-74
2024/01/06 00:55:03;;;;;;;1.02;0.90;;;9.30;99.90;;;;;;5065031;28;20196;-74
2024/01/06 00:57:29;;;;;;;1.40;0.80;;;9.30;99.90;;;;;;5065275;28;20186;-74
2024/01/06 00:59:56;;;;;;;0.77;0.70;;;9.30;99.90;;;;;;5061836;28;20207;-73
2024/01/06 01:02:22;;;;;;;0.77;0.68;;;9.30;99.90;;;;;;5058798;28;20189;-74
2024/01/06 01:04:50;;;;;;;0.80;0.77;;;9.30;99.90;;;;;;5058236;28;20184;-74
2024/01/06 01:07:18;;;;;;;0.82;0.60;;;9.30;99.90;;;;;;5056034;28;20198;-74
2024/01/06 01:09:45;;;;;;;1.13;0.80;;;9.30;99.90;;;;;;5060890;28;20292;-71
2024/01/06 01:12:11;;;;;;;0.90;0.73;;;9.30;99.90;;;;;;5064062;28;20184;-74
2024/01/06 01:14:39;;;;;;;1.33;0.80;;;9.30;99.90;;;;;;5059491;28;20195;-74
2024/01/06 01:17:05;;;;;;;0.80;0.80;;;9.30;99.90;;;;;;5056465;28;20208;-73
2024/01/06 01:19:33;;;;;;;1.35;0.60;;;9.30;99.90;;;;;;5058894;28;20181;-74
2024/01/06 01:22:00;;;;;;;0.77;0.77;;;9.30;99.90;;;;;;5080386;28;20207;-75
2024/01/06 01:24:26;;;;;;;0.73;0.60;;;9.40;99.90;;;;;;5052171;28;20196;-74
2024/01/06 01:26:52;;;;;;;0.80;0.70;;;9.30;99.90;;;;;;5059026;28;20198;-75
2024/01/06 01:29:22;;;;;;;0.88;0.70;;;9.30;99.90;;;;;;5051745;28;20207;-74
2024/01/06 01:31:48;;;;;;;0.70;0.70;;;9.30;99.90;;;;;;5055141;28;20184;-73
2024/01/06 01:34:13;;;;;;;0.90;0.68;;;9.30;99.90;;;;;;5061811;28;20211;-75
2024/01/06 01:36:44;;;;;;;0.70;0.60;;;9.30;99.90;;;;;;5063250;28;20185;-73
2024/01/06 01:39:12;;;;;;;1.77;0.80;;;9.40;99.90;;;;;;5074031;28;20173;-73
2024/01/06 01:41:37;;;;;;;0.75;0.70;;;9.40;99.90;;;;;;5054734;28;20283;-72
2024/01/06 01:44:03;;;;;;;0.63;0.63;;;9.40;99.90;;;;;;5058936;28;20287;-74
2024/01/06 01:46:31;;;;;;;1.55;0.80;;;9.30;99.90;;;;;;5059012;28;20185;-75
2024/01/06 01:49:01;;;;;;;0.93;0.70;;;9.40;99.90;;;;;;5059387;28;20183;-74
2024/01/06 01:51:30;;;;;;;1.00;0.60;;;9.30;99.90;;;;;;5059631;28;20237;-75
2024/01/06 01:53:57;;;;;;;0.52;0.52;;;9.30;99.90;;;;;;5060291;28;20176;-73
2024/01/06 01:56:24;;;;;;;0.90;0.50;;;9.20;99.90;;;;;;5058407;28;20181;-74
2024/01/06 01:58:50;;;;;;;0.75;0.70;;;9.30;99.90;;;;;;5056656;28;20204;-75
2024/01/06 02:01:17;;;;;;;0.70;0.60;;;9.30;99.90;;;;;;5061609;28;20269;-73
2024/01/06 02:03:45;;;;;;;0.88;0.70;;;9.30;99.90;;;;;;5061728;28;20175;-75
2024/01/06 02:06:11;;;;;;;0.60;0.60;;;9.20;99.90;;;;;;5060510;28;20220;-74
2024/01/06 02:08:37;;;;;;;0.70;0.68;;;9.30;99.90;;;;;;5058786;28;20263;-74
2024/01/06 02:11:04;;;;;;;1.00;0.70;;;9.30;99.90;;;;;;5054713;28;20199;-74
2024/01/06 02:13:41;;;;;;;0.85;0.70;;;9.20;99.90;;;;;;5071663;28;20254;-75
2024/01/06 02:16:07;;;;;;;0.70;0.70;;;9.20;99.90;;;;;;5056199;28;20274;-72
2024/01/06 02:18:33;;;;;;;1.20;0.60;;;9.20;99.90;;;;;;5059018;28;20306;-74
2024/01/06 02:21:00;;;;;;;0.93;0.73;;;9.10;99.90;;;;;;5057775;28;20280;-75
2024/01/06 02:23:29;;;;;;;1.13;0.77;;;9.10;99.90;;;;;;5058952;28;20230;-71
2024/01/06 02:25:59;;;;;;;0.90;0.63;;;9.10;99.90;;;;;;5056925;28;20211;-75
2024/01/06 02:28:25;;;;;;;1.38;1.00;;;9.20;99.90;;;;;;5052266;28;20166;-75
2024/01/06 02:30:50;;;;;;;0.80;0.80;;;9.10;99.90;;;;;;5055111;28;20181;-74
2024/01/06 02:33:16;;;;;;;0.97;0.87;;;9.00;99.90;;;;;;5055657;28;20206;-73
2024/01/06 02:35:42;;;;;;;1.00;0.90;;;9.00;99.90;;;;;;5052882;28;20177;-71
2024/01/06 02:38:10;;;;;;;1.43;0.80;;;9.00;99.90;;;;;;5057412;28;20279;-72
2024/01/06 02:40:36;;;;;;;1.17;1.00;;;9.00;99.90;;;;;;5055569;28;20211;-75
2024/01/06 02:43:02;;;;;;;1.10;1.00;;;9.00;99.90;;;;;;5058683;28;20177;-75
2024/01/06 02:45:30;;;;;;;1.10;0.90;;;9.00;99.90;;;;;;5058751;28;20184;-75
2024/01/06 02:47:57;;;;;;;1.20;1.00;;;9.00;99.90;;;;;;5060206;28;20231;-74
2024/01/06 02:50:23;;;;;;;1.80;0.90;;;9.00;99.90;;;;;;5057706;28;20184;-72
2024/01/06 02:52:48;;;;;;;1.20;1.10;;;9.00;99.90;;;;;;5056872;28;20264;-75
2024/01/06 02:55:14;;;;;;;1.20;1.07;;;9.00;99.90;;;;;;5078839;28;20195;-75
2024/01/06 02:57:42;;;;;;;2.43;1.00;;;9.00;99.90;;;;;;5060483;28;20195;-74
2024/01/06 03:00:08;;;;;;;1.20;1.02;;;9.00;99.90;;;;;;5073906;28;20260;-75
2024/01/06 03:02:36;;;;;;;1.33;1.10;;;9.00;99.90;;;;;;5057200;28;20168;-75
2024/01/06 03:05:02;;;;;;;1.65;1.30;;;9.00;99.90;;;;;;5056733;28;20169;-75
2024/01/06 03:07:30;;;;;;;1.73;1.30;;;9.00;99.90;;;;;;5058656;28;20181;-75
2024/01/06 03:09:55;;;;;;;1.70;1.30;;;9.00;99.90;;;;;;5058529;28;20177;-75
2024/01/06 03:12:23;;;;;;;1.33;1.23;;;9.00;99.90;;;;;;5058940;28;20187;-73
2024/01/06 03:14:49;;;;;;;2.45;1.50;;;9.00;99.90;;;;;;5056740;28;20176;-74
2024/01/06 03:17:14;;;;;;;1.33;1.23;;;9.00;99.90;;;;;;5052955;28;20184;-69
2024/01/06 03:19:40;;;;;;;2.77;1.60;;;9.00;99.90;;;;;;5060423;28;20301;-75
2024/01/06 03:22:08;;;;;;;1.75;1.60;;;8.90;99.90;;;;;;5061577;28;20184;-72
2024/01/06 03:24:34;;;;;;;2.00;1.70;;;8.90;99.90;;;;;;5058602;28;20227;-73
2024/01/06 03:27:04;;;;;;;1.70;1.50;;;8.90;99.90;;;;;;5054667;28;20193;-75
2024/01/06 03:29:32;;;;;;;2.50;1.83;;;8.80;99.90;;;;;;5054082;28;20448;-76
2024/01/06 03:31:57;;;;;;;2.43;1.90;;;8.80;99.90;;;;;;5061189;28;20177;-75
2024/01/06 03:34:23;;;;;;;2.40;2.07;;;8.80;99.90;;;;;;5055352;28;20214;-75
2024/01/06 03:36:51;;;;;;;2.10;1.90;;;8.80;99.90;;;;;;5054199;28;20230;-74
2024/01/06 03:39:16;;;;;;;1.97;1.73;;;8.90;99.90;;;;;;5061813;28;20191;-75
2024/01/06 03:41:42;;;;;;;2.33;1.97;;;8.80;99.90;;;;;;5057606;28;20204;-75
2024/01/06 03:44:10;;;;;;;2.47;2.13;;;8.80;99.90;;;;;;5051726;28;20193;-73
2024/01/06 03:46:36;;;;;;;2.43;2.07;;;8.80;99.90;;;;;;5057786;28;20242;-73
2024/01/06 03:49:01;;;;;;;2.50;2.13;;;8.70;99.90;;;;;;5055046;28;20188;-70
2024/01/06 03:51:27;;;;;;;2.90;2.50;;;8.80;99.90;;;;;;5074291;28;20297;-73
2024/01/06 03:53:55;;;;;;;2.53;2.27;;;8.80;99.90;;;;;;5055500;28;20189;-75
2024/01/06 03:56:23;;;;;;;3.33;2.57;;;8.70;99.90;;;;;;5055770;28;20176;-71
2024/01/06 03:58:48;;;;;;;2.90;2.60;;;8.70;99.90;;;;;;5055265;28;20185;-73
2024/01/06 04:01:16;;;;;;;2.90;2.40;;;8.70;99.90;;;;;;5055350;28;20204;-72
2024/01/06 04:03:42;;;;;;;2.43;2.23;;;8.70;99.90;;;;;;5052255;28;20243;-74
2024/01/06 04:06:12;;;;;;;2.93;2.30;;;8.70;99.90;;;;;;5055268;28;20232;-74
2024/01/06 04:08:40;;;;;;;2.63;2.33;;;8.70;99.90;;;;;;5053000;28;20177;-73
2024/01/06 04:11:08;;;;;;;2.37;2.00;;;8.70;99.90;;;;;;5056667;28;20196;-74
2024/01/06 04:13:40;;;;;;;3.37;2.60;;;8.70;99.90;;;;;;5059982;28;20181;-74
2024/01/06 04:16:11;;;;;;;2.50;2.30;;;8.70;99.90;;;;;;5056493;28;20185;-72
2024/01/06 04:18:38;;;;;;;2.77;2.50;;;8.70;99.90;;;;;;5062270;28;20245;-74
2024/01/06 04:21:08;;;;;;;2.70;2.30;;;8.80;99.90;;;;;;5058086;28;20250;-72
2024/01/06 04:23:34;;;;;;;3.40;2.90;;;8.70;99.90;;;;;;5058095;28;20219;-71
2024/01/06 04:26:01;;;;;;;3.27;2.63;;;8.70;99.90;;;;;;5060615;28;20224;-72
2024/01/06 04:28:29;;;;;;;4.27;3.07;;;8.70;99.90;;;;;;5063616;28;20169;-68
2024/01/06 04:30:57;;;;;;;3.83;2.97;;;8.80;99.90;;;;;;5056767;28;20275;-73
2024/01/06 04:33:22;;;;;;;3.63;2.80;;;8.90;99.90;;;;;;5064344;28;20271;-74
2024/01/06 04:35:48;;;;;;;3.70;3.27;;;8.80;99.90;;;;;;5061919;28;20286;-74
2024/01/06 04:38:13;;;;;;;4.17;3.57;;;8.80;99.90;;;;;;5058447;28;20188;-74
2024/01/06 04:40:39;;;;;;;4.82;3.45;;;8.80;99.90;;;;;;5063124;28;20210;-74
2024/01/06 04:43:05;;;;;;;4.30;3.58;;;8.80;99.90;;;;;;5060956;28;20168;-75
2024/01/06 04:45:30;;;;;;;4.90;3.80;;;8.80;99.90;;;;;;5059726;28;20227;-75
2024/01/06 04:47:56;;;;;;;4.83;3.57;;;8.80;99.90;;;;;;5057567;28;20422;-74
2024/01/06 04:50:26;;;;;;;4.93;3.70;;;8.80;99.90;;;;;;5058432;28;20200;-74
2024/01/06 04:52:51;;;;;;;4.37;3.97;;;8.80;99.90;;;;;;5057728;28;20407;-74
2024/01/06 04:55:17;;;;;;;4.63;3.53;;;8.80;99.90;;;;;;5058324;28;20188;-72
2024/01/06 04:57:43;;;;;;;4.07;3.67;;;8.80;99.90;;;;;;5058994;28;20180;-75
2024/01/06 05:00:09;;;;;;;5.23;3.57;;;8.80;99.90;;;;;;5058094;28;20212;-74
2024/01/06 05:02:36;;;;;;;5.53;3.37;;;8.80;99.90;;;;;;5066406;28;20201;-72
2024/01/06 05:05:02;;;;;;;4.30;3.75;;;8.80;99.90;;;;;;5055705;28;20215;-70
2024/01/06 05:07:30;;;;;;;4.78;3.60;;;8.80;99.90;;;;;;5056360;28;20208;-75
2024/01/06 05:09:56;;;;;;;4.80;4.00;;;8.80;99.90;;;;;;5059729;28;20291;-72
2024/01/06 05:12:21;;;;;;;4.47;3.80;;;8.80;99.90;;;;;;5060032;28;20285;-75
2024/01/06 05:14:47;;;;;;;4.47;3.90;;;8.80;99.90;;;;;;5060460;28;20200;-72
2024/01/06 05:17:15;;;;;;;4.10;3.70;;;8.80;99.90;;;;;;5057643;28;20192;-74
2024/01/06 05:19:47;;;;;;;4.03;3.40;;;8.80;99.90;;;;;;5059615;28;20176;-74
2024/01/06 05:22:15;;;;;;;5.10;3.63;;;8.90;99.90;;;;;;5062348;28;20231;-74
2024/01/06 05:24:44;;;;;;;3.93;3.30;;;8.80;99.90;;;;;;5062752;28;20321;-75
2024/01/06 05:27:12;;;;;;;4.30;3.17;;;8.80;99.90;;;;;;5056252;28;20193;-74
2024/01/06 05:29:43;;;;;;;4.20;3.40;;;8.90;99.90;;;;;;5058471;28;20252;-70
2024/01/06 05:32:11;;;;;;;4.63;3.30;;;8.80;99.90;;;;;;5058554;28;20180;-75
2024/01/06 05:34:39;;;;;;;3.70;3.15;;;8.80;99.90;;;;;;5060702;28;20252;-75
2024/01/06 05:37:07;;;;;;;4.67;3.10;;;8.80;99.90;;;;;;5059784;28;20169;-74
2024/01/06 05:39:35;;;;;;;3.80;2.90;;;8.80;99.90;;;;;;5056211;28;20253;-72
2024/01/06 05:42:01;;;;;;;5.23;3.73;;;8.90;99.90;;;;;;5057966;28;20189;-75
2024/01/06 05:44:27;;;;;;;4.25;3.55;;;8.80;99.90;;;;;;5052862;28;20185;-73
2024/01/06 05:46:54;;;;;;;4.37;3.47;;;8.70;99.90;;;;;;5051222;28;20235;-74
2024/01/06 05:49:23;;;;;;;4.23;3.73;;;8.80;99.90;;;;;;5060049;28;20185;-73
2024/01/06 05:51:49;;;;;;;4.13;3.13;;;8.80;99.90;;;;;;5062940;28;20199;-74
2024/01/06 05:54:15;;;;;;;5.55;3.90;;;8.70;99.90;;;;;;5066493;28;20184;-74
2024/01/06 05:56:43;;;;;;;4.50;3.77;;;8.70;99.90;;;;;;5058232;28;20209;-69
2024/01/06 05:59:11;;;;;;;5.57;3.83;;;8.70;99.90;;;;;;5057957;28;20185;-74
2024/01/06 06:01:36;;;;;;;5.23;4.33;;;8.70;99.90;;;;;;5056802;28;20208;-74
2024/01/06 06:04:02;;;;;;;6.73;4.70;;;8.60;99.90;;;;;;5058647;28;20201;-74
2024/01/06 06:06:30;;;;;;;5.93;4.70;;;8.60;99.90;;;;;;5058054;28;20181;-75
2024/01/06 06:08:57;;;;;;;6.57;4.57;;;8.60;99.90;;;;;;5055049;28;20227;-70
2024/01/06 06:11:25;;;;;;;6.43;4.87;;;8.60;99.90;;;;;;5054819;28;20177;-74
2024/01/06 06:13:51;;;;;;;6.83;5.57;;;8.60;99.90;;;;;;5059479;28;20173;-74
2024/01/06 06:16:16;;;;;;;9.03;6.53;;;8.60;99.90;;;;;;5059350;28;20191;-74
2024/01/06 06:18:44;;;;;;;9.47;6.80;;;8.60;99.90;;;;;;5059542;28;20195;-74
2024/01/06 06:21:10;;;;;;;10.60;7.80;;;8.60;99.90;;;;;;5054465;28;20213;-74
2024/01/06 06:23:35;;;;;;;14.10;9.67;;;8.60;99.90;;;;;;5057934;28;20168;-74
2024/01/06 06:26:11;;;;;;;11.23;8.30;;;8.60;99.90;;;;;;5059196;28;20268;-74
2024/01/06 06:28:39;;;;;;;13.27;8.90;;;8.50;99.90;;;;;;5058224;28;20188;-74
2024/01/06 06:31:05;;;;;;;10.90;7.97;;;8.40;99.90;;;;;;5057180;28;20207;-72
2024/01/06 06:33:30;;;;;;;11.67;8.03;;;8.30;99.90;;;;;;5062701;28;20204;-74
2024/01/06 06:35:56;;;;;;;12.00;8.10;;;8.20;99.90;;;;;;5074682;28;20173;-71
2024/01/06 06:38:22;;;;;;;11.67;7.80;;;8.20;99.90;;;;;;5058482;28;20181;-75
2024/01/06 06:40:47;;;;;;;12.93;8.80;;;8.10;99.90;;;;;;5056882;28;20286;-71
2024/01/06 06:43:16;;;;;;;11.40;8.03;;;8.00;99.90;;;;;;5049488;28;20264;-72
2024/01/06 06:45:44;;;;;;;12.27;8.47;;;8.00;99.90;;;;;;5059850;28;20192;-74
2024/01/06 06:48:12;;;;;;;10.87;7.57;;;8.00;99.90;;;;;;5052442;28;20179;-74
2024/01/06 06:50:38;;;;;;;9.50;7.00;;;7.90;99.90;;;;;;5060359;28;20200;-74
2024/01/06 06:53:03;;;;;;;10.77;7.47;;;7.90;99.90;;;;;;5057046;28;20168;-74
2024/01/06 06:55:31;;;;;;;9.53;6.80;;;7.90;99.90;;;;;;5057544;28;20176;-73
2024/01/06 06:57:57;;;;;;;8.83;6.57;;;7.90;99.90;;;;;;5055215;28;20197;-74
2024/01/06 07:00:22;;;;;;;10.50;6.87;;;7.90;99.90;;;;;;5043888;28;20203;-74
2024/01/06 07:02:48;;;;;;;8.77;6.27;;;7.90;99.90;;;;;;5038725;28;20284;-74
2024/01/06 07:05:14;;;;;;;8.73;5.87;;;7.90;99.90;;;;;;5048720;28;20501;-75
2024/01/06 07:07:44;;;;;;;9.07;5.83;;;7.90;99.90;;;;;;5070635;28;20180;-73
2024/01/06 07:10:12;;;;;;;8.00;5.90;;;7.90;99.90;;;;;;5078825;28;20172;-75
2024/01/06 07:12:40;;;;;;;9.73;5.87;;;7.90;99.90;;;;;;5056964;28;20215;-74
2024/01/06 07:15:12;;;;;;;8.43;5.87;;;7.90;99.90;;;;;;5057936;28;20193;-74
2024/01/06 07:17:38;;;;;;;7.57;5.23;;;7.80;99.90;;;;;;5193055;22;20216;-73
2024/01/06 07:20:06;;;;;;;7.90;5.10;;;8.00;99.90;;;;;;5067121;28;20240;-74
2024/01/06 07:22:35;;;;;;;8.43;5.47;;;7.80;99.90;;;;;;5049503;28;20244;-74
2024/01/06 07:25:01;;;;;;;8.27;5.67;;;7.70;99.90;;;;;;5057984;28;20263;-74
2024/01/06 07:27:27;;;;;;;7.40;5.50;;;7.70;99.90;;;;;;5057580;28;20177;-74
2024/01/06 07:29:52;;;;;;;7.37;5.37;;;7.60;99.90;;;;;;5049563;28;20192;-72
2024/01/06 07:32:18;;;;;;;7.83;5.13;;;7.60;99.90;;;;;;5053319;28;20283;-74
2024/01/06 07:34:43;;;;;;;8.37;5.20;;;7.50;99.90;;;;;;5057655;28;20275;-74
2024/01/06 07:37:09;;;;;;;7.47;5.20;;;7.50;99.90;;;;;;5057600;28;20184;-74
2024/01/06 07:39:35;;;;;;;9.07;6.23;;;7.60;99.90;;;;;;5070922;28;20208;-69
2024/01/06 07:42:06;;;;;;;15.33;10.60;;;7.60;99.90;;;;;;5090769;28;20211;-73
2024/01/06 07:44:32;;;;;;;10.70;7.47;;;7.50;99.90;;;;;;5061569;28;20200;-73
2024/01/06 07:47:05;;;;;;;8.77;6.70;;;7.50;99.90;;;;;;5057095;28;20272;-74
2024/01/06 07:49:30;;;;;;;10.30;6.73;;;7.50;99.90;;;;;;5041127;28;20457;-75
2024/01/06 07:51:58;;;;;;;9.60;6.50;;;7.50;99.90;;;;;;5053967;28;20197;-73
2024/01/06 07:54:24;;;;;;;9.43;6.77;;;7.60;99.90;;;;;;5063039;28;20618;-72
2024/01/06 07:56:49;;;;;;;9.30;6.53;;;7.60;99.90;;;;;;5056278;28;20218;-74
2024/01/06 07:59:15;;;;;;;8.57;6.10;;;7.50;99.90;;;;;;5056348;28;20195;-75
2024/01/06 08:01:43;;;;;;;9.50;6.50;;;7.50;99.90;;;;;;5052286;28;20213;-76
2024/01/06 08:04:09;;;;;;;8.30;5.67;;;7.50;99.90;;;;;;5069155;28;20211;-72
2024/01/06 08:06:37;;;;;;;8.33;5.90;;;7.50;99.90;;;;;;5056986;28;20172;-75
2024/01/06 08:09:05;;;;;;;7.00;4.83;;;7.40;99.90;;;;;;5077491;28;20176;-74
2024/01/06 08:11:38;;;;;;;6.87;4.57;;;7.40;99.90;;;;;;5074016;28;20312;-71
2024/01/06 08:14:04;;;;;;;7.53;5.10;;;7.40;99.90;;;;;;5051094;28;20240;-71
2024/01/06 08:16:30;;;;;;;8.67;5.20;;;7.40;99.90;;;;;;5058810;28;20208;-70
2024/01/06 08:18:57;;;;;;;8.20;5.23;;;7.40;99.90;;;;;;5068488;28;20172;-74
2024/01/06 08:21:25;;;;;;;8.23;5.27;;;7.40;99.90;;;;;;5044615;28;20196;-74
2024/01/06 08:23:53;;;;;;;8.33;5.43;;;7.40;99.90;;;;;;5057626;28;20173;-73
2024/01/06 08:26:19;;;;;;;7.63;5.33;;;7.40;99.90;;;;;;5056753;28;20264;-75
2024/01/06 08:28:46;;;;;;;8.67;5.37;;;7.40;99.90;;;;;;5056301;28;20184;-73
2024/01/06 08:31:12;;;;;;;7.10;5.07;;;7.40;99.90;;;;;;5056919;28;20264;-74
2024/01/06 08:33:42;;;;;;;10.17;5.37;;;7.30;99.90;;;;;;5054665;28;20280;-74
2024/01/06 08:36:09;;;;;;;7.97;5.33;;;7.30;99.90;;;;;;5057622;28;20310;-74
2024/01/06 08:38:35;;;;;;;8.17;5.13;;;7.30;99.90;;;;;;5068561;28;20184;-74
2024/01/06 08:41:03;;;;;;;7.17;4.70;;;7.30;99.90;;;;;;5049020;28;20212;-74
2024/01/06 08:43:29;;;;;;;8.37;5.67;;;7.30;99.90;;;;;;5057350;28;20204;-74
2024/01/06 08:46:00;;;;;;;8.70;5.20;;;7.30;99.90;;;;;;5064540;28;20179;-75
2024/01/06 08:48:28;;;;;;;8.83;6.00;;;7.40;99.90;;;;;;5071132;28;20238;-74
2024/01/06 08:50:55;;;;;;;8.90;6.20;;;7.40;99.90;;;;;;5057070;28;20188;-75
2024/01/06 08:53:23;;;;;;;9.73;6.10;;;7.40;99.90;;;;;;5053086;28;20181;-75
2024/01/06 08:55:51;;;;;;;10.30;6.50;;;7.40;99.90;;;;;;5058030;28;20207;-75
2024/01/06 08:58:17;;;;;;;8.37;5.67;;;7.30;99.90;;;;;;5057124;28;20223;-74
2024/01/06 09:00:45;;;;;;;11.13;7.50;;;7.30;99.90;;;;;;5055231;28;20248;-75
2024/01/06 09:03:12;;;;;;;10.93;6.63;;;7.30;99.90;;;;;;5047865;28;20177;-73
2024/01/06 09:05:42;;;;;;;11.70;7.07;;;7.30;99.90;;;;;;5057424;28;20207;-73
2024/01/06 09:08:11;;;;;;;10.33;7.10;;;7.30;99.90;;;;;;5053371;28;20288;-73
2024/01/06 09:10:38;;;;;;;10.47;6.87;;;7.20;99.90;;;;;;5060186;28;20196;-73
2024/01/06 09:13:04;;;;;;;10.63;6.60;;;7.20;99.90;;;;;;5059244;28;20232;-72
2024/01/06 09:15:30;;;;;;;11.40;5.90;;;7.20;99.90;;;;;;5060608;28;20223;-73
2024/01/06 09:17:58;;;;;;;11.03;7.33;;;7.10;99.90;;;;;;5056220;28;20212;-73
2024/01/06 09:20:27;;;;;;;11.13;6.83;;;7.20;99.90;;;;;;5058886;28;20196;-69
2024/01/06 09:22:53;;;;;;;11.30;7.60;;;7.20;99.90;;;;;;5062000;28;20363;-75
2024/01/06 09:25:18;;;;;;;12.43;7.50;;;7.10;99.90;;;;;;5047013;28;20220;-76
2024/01/06 09:27:44;;;;;;;11.30;7.20;;;7.20;99.90;;;;;;5060457;28;20213;-77
2024/01/06 09:30:10;;;;;;;11.13;6.87;;;7.10;99.90;;;;;;5048008;28;20215;-79
2024/01/06 09:32:36;;;;;;;9.63;6.43;;;7.00;99.90;;;;;;5049371;28;20176;-76
2024/01/06 09:35:02;;;;;;;10.50;6.87;;;7.00;99.90;;;;;;5071387;28;20206;-75
2024/01/06 09:37:32;;;;;;;10.37;6.77;;;6.90;99.90;;;;;;5074278;28;20188;-74
2024/01/06 09:40:00;;;;;;;10.10;6.60;;;7.00;99.90;;;;;;5054937;28;20183;-77
2024/01/06 09:42:26;;;;;;;9.77;6.10;;;6.90;99.90;;;;;;5072990;28;20222;-73
2024/01/06 09:44:52;;;;;;;10.30;6.47;;;6.90;99.90;;;;;;5059603;28;20176;-76
2024/01/06 09:47:21;;;;;;;10.10;6.97;;;6.90;99.90;;;;;;5058796;28;20264;-82
2024/01/06 09:49:50;;;;;;;11.10;7.57;;;6.90;99.90;;;;;;5060114;28;20247;-83
2024/01/06 09:52:19;;;;;;;14.03;7.80;;;6.80;99.90;;;;;;5057058;28;20186;-80
2024/01/06 09:54:52;;;;;;;11.13;7.13;;;6.80;99.90;;;;;;5055691;28;20890;-81
2024/01/06 09:57:18;;;;;;;13.37;7.00;;;6.80;99.90;;;;;;5057205;28;20308;-78
2024/01/06 09:59:49;;;;;;;10.40;6.40;;;6.80;99.90;;;;;;5058119;28;20233;-80
2024/01/06 10:02:16;;;;;;;10.97;6.83;;;6.80;99.90;;;;;;5056201;28;20214;-78
2024/01/06 10:04:47;;;;;;;10.63;7.00;;;6.80;99.90;;;;;;5057885;28;20870;-79
2024/01/06 10:07:15;;;;;;;11.23;7.63;;;6.80;99.90;;;;;;5055922;28;20212;-80
2024/01/06 10:09:44;;;;;;;10.00;6.37;;;6.90;99.90;;;;;;5055442;28;20355;-82
2024/01/06 10:12:11;;;;;;;11.43;7.23;;;6.90;99.90;;;;;;5057692;28;20193;-81
2024/01/06 10:14:40;;;;;;;11.93;7.20;;;6.90;99.90;;;;;;5058707;28;20475;-80
2024/01/06 10:17:08;;;;;;;9.07;5.90;;;7.00;99.90;;;;;;5060010;28;20197;-79
2024/01/06 10:19:38;;;;;;;9.50;6.00;;;7.00;99.90;;;;;;5073800;28;20219;-80
2024/01/06 10:22:04;;;;;;;10.20;6.63;;;7.10;99.90;;;;;;5055386;28;20198;-81
2024/01/06 10:24:32;;;;;;;9.10;6.33;;;7.10;99.90;;;;;;5059023;28;20176;-80
2024/01/06 10:27:01;;;;;;;8.87;5.70;;;7.10;99.90;;;;;;5059027;28;20206;-80
2024/01/06 10:29:31;;;;;;;9.63;5.80;;;7.10;99.90;;;;;;5042626;28;20260;-78
2024/01/06 10:32:00;;;;;;;9.33;5.07;;;7.40;99.90;;;;;;5059842;28;20179;-77
2024/01/06 10:34:28;;;;;;;9.80;6.03;;;7.20;99.90;;;;;;5063756;28;20201;-78
2024/01/06 10:36:54;;;;;;;7.53;5.30;;;7.30;99.90;;;;;;5046041;28;20203;-76
2024/01/06 10:39:25;;;;;;;8.97;5.53;;;7.30;99.90;;;;;;5055573;28;20197;-77
2024/01/06 10:41:56;;;;;;;7.73;5.20;;;7.30;99.90;;;;;;5049526;28;20193;-76
2024/01/06 10:44:22;;;;;;;8.47;5.30;;;7.30;99.90;;;;;;5076071;28;20200;-76
2024/01/06 10:46:50;;;;;;;9.10;5.50;;;7.30;99.90;;;;;;5056027;28;20189;-73
2024/01/06 10:49:21;;;;;;;7.83;5.10;;;7.40;99.90;;;;;;5060295;28;20191;-80
2024/01/06 10:51:49;;;;;;;7.70;5.00;;;7.40;99.90;;;;;;5053246;28;20267;-80
2024/01/06 10:54:20;;;;;;;9.17;5.33;;;7.40;99.90;;;;;;5056358;28;20196;-81
2024/01/06 10:56:47;;;;;;;7.20;4.80;;;7.40;99.90;;;;;;5047724;28;20177;-72
2024/01/06 10:59:14;;;;;;;7.07;4.60;;;7.40;99.90;;;;;;5056485;28;20185;-73
2024/01/06 11:01:41;;;;;;;6.33;4.43;;;7.40;99.90;;;;;;5054665;28;20212;-77
2024/01/06 11:04:09;;;;;;;6.17;4.50;;;7.40;99.90;;;;;;5062654;28;20184;-80
2024/01/06 11:06:35;;;;;;;6.37;4.30;;;7.50;99.90;;;;;;5060247;28;20196;-80
2024/01/06 11:09:21;;;;;;;5.13;3.63;;;7.50;99.90;;;;;;5058789;28;20176;-80
2024/01/06 11:11:48;;;;;;;5.87;3.90;;;7.40;99.90;;;;;;5077880;28;20176;-80
2024/01/06 11:14:22;;;;;;;4.80;3.70;;;7.40;99.90;;;;;;5074117;28;20222;-80
2024/01/06 11:16:48;;;;;;;6.10;4.33;;;7.40;99.90;;;;;;5078214;28;20187;-75
2024/01/06 11:19:36;;;;;;;5.37;3.73;;;7.40;99.90;;;;;;5057368;28;20290;-80
2024/01/06 11:22:39;;;;;;;5.80;4.20;;;7.40;99.90;;;;;;5071725;28;20215;-74
2024/01/06 11:25:14;;;;;;;6.03;4.07;;;7.50;99.90;;;;;;4960610;28;20212;-79
2024/01/06 11:27:42;;;;;;;6.23;3.70;;;7.40;99.90;;;;;;5028957;28;20342;-79
2024/01/06 11:30:23;;;;;;;5.43;4.30;;;7.40;99.90;;;;;;5058362;28;20242;-80
2024/01/06 11:32:53;;;;;;;5.40;3.80;;;7.40;99.90;;;;;;5080584;28;20180;-78
2024/01/06 11:35:20;;;;;;;6.00;4.10;;;7.40;99.90;;;;;;5054831;28;20359;-79
2024/01/06 11:37:45;;;;;;;5.43;4.20;;;7.40;99.90;;;;;;5052735;28;20205;-80
2024/01/06 11:40:25;;;;;;;6.43;4.37;;;7.40;99.90;;;;;;5058370;28;20249;-81
2024/01/06 11:42:58;;;;;;;6.37;4.20;;;7.40;99.90;;;;;;5057577;28;20206;-81
2024/01/06 11:45:25;;;;;;;5.70;4.37;;;7.40;99.90;;;;;;5057097;28;20259;-80
2024/01/06 11:48:03;;;;;;;6.03;4.07;;;7.40;99.90;;;;;;5057461;28;20183;-77
2024/01/06 11:50:38;;;;;;;7.90;4.67;;;7.40;99.90;;;;;;5053447;28;20211;-78
2024/01/06 11:53:04;;;;;;;5.63;4.10;;;7.40;99.90;;;;;;5045708;28;20180;-77
2024/01/06 11:55:34;;;;;;;7.67;4.73;;;7.30;99.90;;;;;;5047148;28;20181;-77
2024/01/06 11:58:02;;;;;;;7.40;4.93;;;7.40;99.90;;;;;;5054736;28;20191;-72
2024/01/06 12:00:33;;;;;;;6.30;4.57;;;7.30;99.90;;;;;;5041921;28;20189;-79
2024/01/06 12:03:01;;;;;;;6.23;4.40;;;7.30;99.90;;;;;;5040658;28;20192;-77
2024/01/06 12:05:30;;;;;;;5.53;4.27;;;7.30;99.90;;;;;;5050858;28;20238;-75
2024/01/06 12:07:59;;;;;;;8.80;5.70;;;7.30;99.90;;;;;;5052300;28;20161;-77
2024/01/06 12:10:26;;;;;;;7.23;4.90;;;7.20;99.90;;;;;;5055455;28;20200;-75
2024/01/06 12:13:02;;;;;;;7.07;5.00;;;7.20;99.90;;;;;;5053228;28;20176;-75
2024/01/06 12:15:32;;;;;;;7.00;4.67;;;7.10;99.90;;;;;;5059290;28;20202;-76
2024/01/06 12:17:58;;;;;;;7.43;4.50;;;7.10;99.90;;;;;;5057904;28;20188;-77
2024/01/06 12:20:25;;;;;;;8.93;5.20;;;7.10;99.90;;;;;;5062438;28;20199;-76
2024/01/06 12:22:52;;;;;;;8.33;5.47;;;7.20;99.90;;;;;;5056540;28;20172;-77
2024/01/06 12:25:29;;;;;;;7.60;4.77;;;7.20;99.90;;;;;;5044317;28;20201;-76
2024/01/06 12:27:54;;;;;;;9.27;5.87;;;7.10;99.90;;;;;;5052844;28;20187;-77
2024/01/06 12:30:22;;;;;;;9.33;5.80;;;7.10;99.90;;;;;;5057236;28;20184;-78
2024/01/06 12:32:50;;;;;;;7.07;4.93;;;7.10;99.90;;;;;;5057605;28;20176;-77
2024/01/06 12:35:22;;;;;;;6.90;4.93;;;7.00;99.90;;;;;;5057906;28;20241;-79
2024/01/06 12:37:47;;;;;;;8.10;5.03;;;7.00;99.90;;;;;;5058771;28;20233;-78
2024/01/06 12:40:16;;;;;;;7.07;4.80;;;6.90;99.90;;;;;;5057416;28;20208;-76
2024/01/06 12:42:44;;;;;;;8.80;5.20;;;6.90;99.90;;;;;;5077352;28;20173;-76
2024/01/06 12:45:10;;;;;;;6.43;4.40;;;6.80;99.90;;;;;;5060149;28;20188;-74
2024/01/06 12:47:36;;;;;;;7.50;4.57;;;6.80;99.90;;;;;;5053153;28;20176;-76
2024/01/06 12:50:04;;;;;;;6.57;4.53;;;6.90;99.90;;;;;;5061374;28;20187;-75
2024/01/06 12:52:33;;;;;;;7.20;4.70;;;6.80;99.90;;;;;;5059112;28;20200;-75
2024/01/06 12:54:59;;;;;;;6.27;4.33;;;6.80;99.90;;;;;;5053700;28;20177;-76
2024/01/06 12:57:25;;;;;;;7.67;5.17;;;6.80;99.90;;;;;;5042954;28;20277;-73